createdAt,value
2023-02-28T00:00:32.211Z,40.75
2023-02-28T00:02:59.335Z,40.29
2023-02-28T00:05:27.209Z,40.43
2023-02-28T00:07:54.014Z,39.97
2023-02-28T00:10:24.478Z,40.26
2023-02-28T00:12:52.124Z,39.93
2023-02-28T00:15:18.955Z,39.69
2023-02-28T00:17:45.833Z,39.54
2023-02-28T00:20:13.925Z,39.45
2023-02-28T00:22:42.902Z,39.72
2023-02-28T00:25:10.796Z,39.30
2023-02-28T00:27:38.657Z,39.54
2023-02-28T00:30:06.749Z,39.30
2023-02-28T00:32:33.544Z,38.99
2023-02-28T00:35:02.018Z,39.10
2023-02-28T00:37:28.809Z,39.15
2023-02-28T00:39:55.621Z,39.19
2023-02-28T00:42:22.892Z,39.08
2023-02-28T00:44:49.663Z,38.92
2023-02-28T00:47:16.986Z,38.83
2023-02-28T00:49:44.132Z,39.03
2023-02-28T00:52:10.945Z,38.99
2023-02-28T00:54:37.640Z,38.91
2023-02-28T00:57:04.435Z,38.89
2023-02-28T00:59:32.195Z,38.90
2023-02-28T01:01:58.942Z,38.53
2023-02-28T01:04:25.886Z,38.51
2023-02-28T01:06:53.066Z,39.09
2023-02-28T01:09:19.945Z,39.18
2023-02-28T01:11:46.763Z,38.92
2023-02-28T01:14:15.821Z,39.09
2023-02-28T01:16:42.794Z,39.00
2023-02-28T01:19:09.559Z,39.15
2023-02-28T01:21:36.697Z,38.79
2023-02-28T01:24:05.269Z,39.27
2023-02-28T01:26:32.652Z,39.18
2023-02-28T01:28:59.745Z,39.34
2023-02-28T01:31:27.131Z,39.22
2023-02-28T01:33:54.104Z,39.43
2023-02-28T01:36:23.247Z,39.27
2023-02-28T01:38:50.340Z,40.18
2023-02-28T01:41:26.290Z,40.39
2023-02-28T01:44:29.488Z,40.90
2023-02-28T01:46:57.313Z,40.78
2023-02-28T01:49:24.029Z,40.98
2023-02-28T01:51:56.010Z,41.44
2023-02-28T01:54:27.209Z,41.60
2023-02-28T01:57:00.421Z,41.62
2023-02-28T01:59:35.433Z,41.72
2023-02-28T02:02:03.531Z,41.87
2023-02-28T02:04:38.493Z,42.49
2023-02-28T02:07:05.444Z,42.53
2023-02-28T02:09:32.173Z,42.58
2023-02-28T02:12:00.546Z,43.19
2023-02-28T02:14:51.851Z,43.30
2023-02-28T02:17:32.278Z,43.18
2023-02-28T02:20:14.302Z,43.11
2023-02-28T02:23:00.051Z,43.29
2023-02-28T02:25:30.761Z,43.48
2023-02-28T02:28:23.194Z,44.01
2023-02-28T02:31:08.174Z,43.86
2023-02-28T02:34:02.728Z,44.15
2023-02-28T02:36:31.878Z,44.00
2023-02-28T02:39:05.581Z,44.48
2023-02-28T02:41:39.420Z,44.26
2023-02-28T02:44:13.243Z,44.23
2023-02-28T02:46:43.807Z,44.51
2023-02-28T02:49:15.832Z,44.53
2023-02-28T02:51:43.710Z,44.39
2023-02-28T02:54:18.272Z,44.55
2023-02-28T02:56:47.739Z,44.54
2023-02-28T02:59:22.099Z,44.59
2023-02-28T03:01:54.618Z,44.83
2023-02-28T03:04:23.345Z,44.84
2023-02-28T03:06:55.811Z,44.73
2023-02-28T03:09:26.539Z,45.11
2023-02-28T03:11:55.867Z,44.75
2023-02-28T03:14:31.947Z,45.24
2023-02-28T03:17:26.349Z,45.29
2023-02-28T03:20:19.822Z,45.09
2023-02-28T03:22:50.591Z,45.41
2023-02-28T03:25:29.470Z,45.48
2023-02-28T03:28:27.041Z,45.49
2023-02-28T03:31:01.845Z,45.56
2023-02-28T03:33:32.094Z,45.87
2023-02-28T03:36:03.283Z,45.97
2023-02-28T03:38:39.032Z,45.84
2023-02-28T03:41:16.341Z,46.12
2023-02-28T03:43:47.637Z,46.00
2023-02-28T03:46:16.574Z,46.14
2023-02-28T03:48:52.477Z,46.37
2023-02-28T03:51:20.885Z,46.61
2023-02-28T03:53:56.289Z,46.62
2023-02-28T03:56:32.811Z,46.52
2023-02-28T03:59:15.670Z,47.01
2023-02-28T04:01:47.637Z,46.95
2023-02-28T04:04:15.386Z,47.15
2023-02-28T04:06:42.620Z,47.22
2023-02-28T04:11:42.012Z,47.10
2023-02-28T04:14:09.876Z,46.88
2023-02-28T04:16:38.371Z,46.94
2023-02-28T04:19:06.785Z,46.73
2023-02-28T04:21:41.874Z,46.82
2023-02-28T04:24:14.970Z,47.06
2023-02-28T04:26:47.041Z,47.26
2023-02-28T04:29:16.151Z,47.70
2023-02-28T04:31:42.852Z,47.23
2023-02-28T04:34:09.601Z,47.86
2023-02-28T04:36:36.404Z,47.96
2023-02-28T04:39:03.253Z,48.09
2023-02-28T04:41:32.391Z,47.92
2023-02-28T04:43:59.742Z,48.10
2023-02-28T04:46:26.445Z,48.11
2023-02-28T04:48:53.111Z,48.06
2023-02-28T04:51:20.786Z,47.89
2023-02-28T04:53:48.841Z,47.92
2023-02-28T04:56:17.639Z,47.87
2023-02-28T04:58:44.905Z,48.00
2023-02-28T05:01:21.230Z,47.94
2023-02-28T05:03:48.900Z,48.25
2023-02-28T05:06:16.459Z,47.72
2023-02-28T05:08:43.176Z,47.77
2023-02-28T05:11:23.401Z,47.97
2023-02-28T05:13:50.912Z,48.11
2023-02-28T05:16:18.220Z,48.15
2023-02-28T05:18:45.436Z,48.31
2023-02-28T05:21:32.292Z,48.43
2023-02-28T05:24:01.382Z,48.35
2023-02-28T05:26:29.011Z,48.41
2023-02-28T05:28:55.723Z,48.57
2023-02-28T05:31:23.143Z,48.13
2023-02-28T05:33:49.860Z,48.42
2023-02-28T05:36:16.671Z,48.03
2023-02-28T05:38:43.415Z,47.90
2023-02-28T05:41:12.024Z,48.32
2023-02-28T05:43:39.238Z,47.86
2023-02-28T05:46:07.198Z,48.32
2023-02-28T05:48:35.330Z,48.11
2023-02-28T05:51:03.539Z,48.03
2023-02-28T05:53:31.162Z,47.97
2023-02-28T05:55:58.327Z,47.93
2023-02-28T05:58:30.144Z,48.17
2023-02-28T06:01:00.129Z,47.93
2023-02-28T06:03:27.637Z,48.01
2023-02-28T06:05:54.641Z,48.13
2023-02-28T06:08:21.817Z,47.78
2023-02-28T06:10:48.604Z,47.98
2023-02-28T06:13:15.344Z,47.86
2023-02-28T06:15:42.529Z,47.88
2023-02-28T06:18:09.445Z,47.83
2023-02-28T06:20:37.293Z,48.04
2023-02-28T06:23:04.299Z,47.74
2023-02-28T06:25:31.136Z,48.13
2023-02-28T06:27:58.125Z,48.20
2023-02-28T06:30:28.097Z,48.24
2023-02-28T06:32:55.531Z,48.02
2023-02-28T06:35:22.907Z,48.02
2023-02-28T06:37:49.687Z,47.83
2023-02-28T06:40:16.540Z,47.91
2023-02-28T06:42:43.415Z,46.96
2023-02-28T06:45:14.867Z,47.45
2023-02-28T06:47:42.477Z,47.76
2023-02-28T06:50:12.196Z,47.98
2023-02-28T06:52:39.346Z,48.67
2023-02-28T06:55:07.346Z,48.32
2023-02-28T06:57:35.669Z,48.84
2023-02-28T07:00:10.687Z,48.66
2023-02-28T07:02:38.626Z,48.68
2023-02-28T07:05:08.138Z,49.05
2023-02-28T07:07:37.011Z,49.14
2023-02-28T07:10:12.414Z,49.43
2023-02-28T07:12:39.157Z,49.85
2023-02-28T07:15:06.862Z,49.77
2023-02-28T07:17:33.588Z,49.31
2023-02-28T07:20:00.277Z,49.75
2023-02-28T07:22:26.977Z,49.35
2023-02-28T07:24:53.721Z,49.49
2023-02-28T07:27:24.836Z,49.56
2023-02-28T07:29:51.636Z,49.01
2023-02-28T07:32:19.494Z,49.01
2023-02-28T07:34:46.561Z,49.48
2023-02-28T07:37:13.484Z,49.87
2023-02-28T07:39:40.231Z,49.65
2023-02-28T07:42:08.369Z,49.58
2023-02-28T07:44:35.172Z,49.57
2023-02-28T07:47:01.923Z,49.57
2023-02-28T07:49:28.770Z,49.27
2023-02-28T07:51:55.536Z,49.60
2023-02-28T07:54:22.199Z,49.18
2023-02-28T07:56:48.981Z,48.72
2023-02-28T07:59:15.836Z,48.35
2023-02-28T08:01:42.980Z,48.63
2023-02-28T08:04:09.707Z,48.84
2023-02-28T08:06:36.426Z,48.20
2023-02-28T08:09:03.455Z,48.50
2023-02-28T08:11:30.609Z,48.00
2023-02-28T08:13:57.605Z,47.93
2023-02-28T08:16:24.555Z,47.63
2023-02-28T08:18:52.936Z,47.82
2023-02-28T08:21:20.379Z,47.29
2023-02-28T08:23:51.529Z,47.07
2023-02-28T08:26:18.715Z,46.93
2023-02-28T08:28:45.727Z,46.92
2023-02-28T08:31:15.494Z,46.76
2023-02-28T08:33:43.109Z,46.25
2023-02-28T08:36:10.268Z,45.97
2023-02-28T08:38:37.540Z,46.25
2023-02-28T08:41:08.233Z,46.54
2023-02-28T08:43:35.696Z,46.79
2023-02-28T08:46:02.848Z,46.71
2023-02-28T08:48:31.268Z,46.54
2023-02-28T08:51:07.743Z,46.48
2023-02-28T08:53:36.085Z,45.87
2023-02-28T08:56:05.814Z,46.20
2023-02-28T08:58:33.498Z,45.91
2023-02-28T09:01:00.345Z,45.69
2023-02-28T09:03:28.119Z,45.76
2023-02-28T09:06:02.837Z,45.81
2023-02-28T09:08:31.511Z,45.94
2023-02-28T09:11:00.674Z,45.67
2023-02-28T09:13:28.507Z,45.65
2023-02-28T09:15:55.606Z,45.79
2023-02-28T09:18:22.462Z,46.16
2023-02-28T09:20:49.304Z,45.90
2023-02-28T09:23:16.048Z,46.20
2023-02-28T09:25:48.063Z,46.49
2023-02-28T09:28:18.341Z,46.19
2023-02-28T09:30:46.799Z,46.07
2023-02-28T09:33:14.437Z,45.90
2023-02-28T09:35:41.249Z,46.07
2023-02-28T09:38:08.549Z,46.42
2023-02-28T09:40:42.723Z,46.55
2023-02-28T09:43:14.153Z,46.25
2023-02-28T09:45:42.611Z,47.04
2023-02-28T09:48:17.030Z,46.46
2023-02-28T09:50:53.792Z,46.30
2023-02-28T09:53:28.291Z,46.25
2023-02-28T09:56:18.439Z,45.90
2023-02-28T09:58:55.624Z,46.08
2023-02-28T10:01:33.904Z,46.01
2023-02-28T10:04:11.947Z,45.20
2023-02-28T10:06:50.993Z,45.36
2023-02-28T10:09:27.051Z,45.82
2023-02-28T10:11:57.182Z,45.62
2023-02-28T10:14:28.010Z,45.97
2023-02-28T10:16:58.131Z,45.78
2023-02-28T10:19:41.237Z,45.85
2023-02-28T10:22:37.052Z,46.45
2023-02-28T10:25:17.893Z,46.29
2023-02-28T10:27:45.134Z,46.18
2023-02-28T10:30:12.888Z,46.38
2023-02-28T10:32:40.058Z,46.62
2023-02-28T10:35:24.561Z,46.56
2023-02-28T10:37:56.737Z,46.46
2023-02-28T10:40:24.567Z,46.65
2023-02-28T10:42:57.455Z,46.57
2023-02-28T10:45:24.998Z,46.72
2023-02-28T10:47:56.443Z,46.85
2023-02-28T10:50:45.904Z,46.83
2023-02-28T10:53:27.820Z,46.87
2023-02-28T10:55:59.751Z,46.69
2023-02-28T10:58:29.478Z,47.21
2023-02-28T11:00:56.263Z,46.99
2023-02-28T11:03:36.042Z,46.57
2023-02-28T11:06:09.198Z,46.39
2023-02-28T11:08:36.081Z,46.95
2023-02-28T11:11:06.773Z,47.05
2023-02-28T11:13:36.439Z,46.99
2023-02-28T11:16:06.021Z,46.97
2023-02-28T11:18:38.949Z,47.02
2023-02-28T11:21:06.229Z,46.62
2023-02-28T11:23:38.026Z,46.58
2023-02-28T11:26:05.989Z,46.40
2023-02-28T11:28:36.051Z,46.55
2023-02-28T11:31:02.958Z,46.62
2023-02-28T11:33:32.085Z,46.94
2023-02-28T11:36:05.022Z,46.89
2023-02-28T11:38:35.283Z,46.44
2023-02-28T11:41:28.765Z,46.51
2023-02-28T11:44:14.926Z,46.46
2023-02-28T11:46:46.641Z,46.54
2023-02-28T11:49:48.846Z,46.19
2023-02-28T11:52:40.424Z,46.21
2023-02-28T11:55:33.962Z,46.73
2023-02-28T11:58:37.374Z,46.06
2023-02-28T12:01:19.702Z,46.59
2023-02-28T12:04:09.854Z,46.38
2023-02-28T12:06:45.740Z,46.23
2023-02-28T12:09:33.862Z,46.61
2023-02-28T12:12:04.152Z,46.81
2023-02-28T12:15:02.164Z,46.67
2023-02-28T12:17:47.110Z,47.06
2023-02-28T12:20:35.863Z,47.00
2023-02-28T12:23:30.669Z,46.91
2023-02-28T12:26:01.758Z,47.17
2023-02-28T12:28:33.180Z,46.76
2023-02-28T12:31:09.838Z,46.95
2023-02-28T12:33:41.937Z,46.97
2023-02-28T12:36:18.511Z,46.88
2023-02-28T12:38:49.381Z,46.58
2023-02-28T12:41:16.002Z,45.97
2023-02-28T12:43:54.676Z,46.43
2023-02-28T12:46:26.580Z,46.69
2023-02-28T12:49:14.395Z,46.51
